createdAt,value
2022-11-19T00:02:30.847Z,7.00
2022-11-19T00:05:16.700Z,7.00
2022-11-19T00:08:02.002Z,7.10
2022-11-19T00:10:47.891Z,7.10
2022-11-19T00:13:33.847Z,7.20
2022-11-19T00:16:19.577Z,7.20
2022-11-19T00:19:05.313Z,7.10
2022-11-19T00:21:50.821Z,7.10
2022-11-19T00:24:36.798Z,7.20
2022-11-19T00:27:22.205Z,7.20
2022-11-19T00:30:19.797Z,7.20
2022-11-19T00:33:13.925Z,7.20
2022-11-19T00:36:00.416Z,7.10
2022-11-19T00:38:46.268Z,7.20
2022-11-19T00:41:31.619Z,7.20
2022-11-19T00:44:17.075Z,7.30
2022-11-19T00:47:02.388Z,7.20
2022-11-19T00:49:48.553Z,7.30
2022-11-19T00:52:33.759Z,7.20
2022-11-19T00:55:19.280Z,7.30
2022-11-19T00:58:05.018Z,7.30
2022-11-19T01:00:51.625Z,7.20
2022-11-19T01:03:38.626Z,7.30
2022-11-19T01:06:25.758Z,7.30
2022-11-19T01:09:11.324Z,7.30
2022-11-19T01:11:56.801Z,7.20
2022-11-19T01:14:42.593Z,7.10
2022-11-19T01:17:28.327Z,7.00
2022-11-19T01:20:13.605Z,6.90
2022-11-19T01:22:59.251Z,6.90
2022-11-19T01:25:45.024Z,6.80
2022-11-19T01:28:30.919Z,6.90
2022-11-19T01:31:19.579Z,6.90
2022-11-19T01:34:05.029Z,7.00
2022-11-19T01:36:50.860Z,6.90
2022-11-19T01:39:36.533Z,6.90
2022-11-19T01:42:49.697Z,6.90
2022-11-19T01:45:48.275Z,6.90
2022-11-19T01:48:37.824Z,7.00
2022-11-19T01:51:27.246Z,7.00
2022-11-19T01:54:23.135Z,7.00
2022-11-19T01:57:13.217Z,7.10
2022-11-19T01:59:58.769Z,7.10
2022-11-19T02:02:44.008Z,7.10
2022-11-19T02:05:29.496Z,7.20
2022-11-19T02:08:38.462Z,7.10
2022-11-19T02:11:29.780Z,7.10
2022-11-19T02:14:41.892Z,7.10
2022-11-19T02:17:59.212Z,7.00
2022-11-19T02:21:06.562Z,7.00
2022-11-19T02:24:38.581Z,6.90
2022-11-19T02:27:47.877Z,6.90
2022-11-19T02:30:38.512Z,6.90
2022-11-19T02:33:36.047Z,6.90
2022-11-19T02:36:42.182Z,6.90
2022-11-19T02:39:34.967Z,7.00
2022-11-19T02:42:41.592Z,7.00
2022-11-19T02:45:36.267Z,6.90
2022-11-19T02:48:27.224Z,7.00
2022-11-19T02:51:15.476Z,7.00
2022-11-19T02:54:00.803Z,7.00
2022-11-19T02:56:54.037Z,7.00
2022-11-19T03:00:17.453Z,6.90
2022-11-19T03:03:24.101Z,7.00
2022-11-19T03:06:17.931Z,7.00
2022-11-19T03:09:03.886Z,6.90
2022-11-19T03:12:18.383Z,6.90
2022-11-19T03:15:58.245Z,6.90
2022-11-19T03:18:43.748Z,6.90
2022-11-19T03:21:52.128Z,7.00
2022-11-19T03:24:45.349Z,7.00
2022-11-19T03:27:45.325Z,7.10
2022-11-19T03:30:32.093Z,7.10
2022-11-19T03:33:42.016Z,7.10
2022-11-19T03:36:32.054Z,7.10
2022-11-19T03:39:20.171Z,7.10
2022-11-19T03:42:11.745Z,7.00
2022-11-19T03:45:02.932Z,7.00
2022-11-19T03:47:50.494Z,7.00
2022-11-19T03:50:59.891Z,6.80
2022-11-19T03:53:45.350Z,6.80
2022-11-19T03:56:33.241Z,6.70
2022-11-19T03:59:18.784Z,6.70
2022-11-19T04:02:08.378Z,6.60
2022-11-19T04:04:53.700Z,6.70
2022-11-19T04:07:39.285Z,6.70
2022-11-19T04:10:25.085Z,6.70
2022-11-19T04:13:10.609Z,6.70
2022-11-19T04:15:56.199Z,6.70
2022-11-19T04:18:41.766Z,6.70
2022-11-19T04:21:27.375Z,6.70
2022-11-19T04:24:12.788Z,6.80
2022-11-19T04:26:58.432Z,6.80
2022-11-19T04:29:43.857Z,6.90
2022-11-19T04:32:29.918Z,6.80
2022-11-19T04:35:18.234Z,6.80
2022-11-19T04:38:03.468Z,6.90
2022-11-19T04:40:48.977Z,6.90
2022-11-19T04:43:34.751Z,6.90
2022-11-19T04:46:20.099Z,6.90
2022-11-19T04:49:05.949Z,6.90
2022-11-19T04:51:51.638Z,6.90
2022-11-19T04:54:37.212Z,6.90
2022-11-19T04:57:22.441Z,6.90
2022-11-19T05:00:08.779Z,6.90
2022-11-19T05:02:54.195Z,6.90
2022-11-19T05:05:39.722Z,6.90
2022-11-19T05:08:25.354Z,6.90
2022-11-19T05:11:11.293Z,6.90
2022-11-19T05:13:56.571Z,6.90
2022-11-19T05:16:42.030Z,7.00
2022-11-19T05:19:27.578Z,7.00
2022-11-19T05:22:12.998Z,7.00
2022-11-19T05:24:58.632Z,7.10
2022-11-19T05:27:43.938Z,7.10
2022-11-19T05:30:29.281Z,7.10
2022-11-19T05:33:15.028Z,7.00
2022-11-19T05:36:00.206Z,6.90
2022-11-19T05:38:46.055Z,6.90
2022-11-19T05:41:31.679Z,6.90
2022-11-19T05:44:16.970Z,6.90
2022-11-19T05:47:02.601Z,6.90
2022-11-19T05:49:48.058Z,6.90
2022-11-19T05:52:33.728Z,6.90
2022-11-19T05:55:19.271Z,6.90
2022-11-19T05:58:04.754Z,6.90
2022-11-19T06:00:54.904Z,6.90
2022-11-19T06:03:41.065Z,7.00
2022-11-19T06:06:26.328Z,7.00
2022-11-19T06:09:11.894Z,6.90
2022-11-19T06:11:57.665Z,6.90
2022-11-19T06:14:43.108Z,6.70
2022-11-19T06:17:28.905Z,6.60
2022-11-19T06:20:14.758Z,6.60
2022-11-19T06:23:00.167Z,6.60
2022-11-19T06:25:45.657Z,6.70
2022-11-19T06:28:31.281Z,6.70
2022-11-19T06:31:17.214Z,6.70
2022-11-19T06:34:03.074Z,6.80
2022-11-19T06:36:50.725Z,6.80
2022-11-19T06:39:36.560Z,6.80
2022-11-19T06:42:38.118Z,6.90
2022-11-19T06:45:23.659Z,6.90
2022-11-19T06:48:09.428Z,6.80
2022-11-19T06:50:55.216Z,6.80
2022-11-19T06:53:40.628Z,6.90
2022-11-19T06:56:26.250Z,6.90
2022-11-19T06:59:11.949Z,6.90
2022-11-19T07:01:57.257Z,7.00
2022-11-19T07:04:42.873Z,7.00
2022-11-19T07:07:28.218Z,6.90
2022-11-19T07:10:13.837Z,7.00
2022-11-19T07:13:00.154Z,6.90
2022-11-19T07:15:45.930Z,6.90
2022-11-19T07:18:31.515Z,7.00
2022-11-19T07:21:17.049Z,7.00
2022-11-19T07:24:04.619Z,7.10
2022-11-19T07:26:50.172Z,7.10
2022-11-19T07:29:35.699Z,7.20
2022-11-19T07:32:21.285Z,7.20
2022-11-19T07:35:07.190Z,7.20
2022-11-19T07:37:52.494Z,7.20
2022-11-19T07:40:38.618Z,7.10
2022-11-19T07:43:24.256Z,7.00
2022-11-19T07:46:10.071Z,7.00
2022-11-19T07:48:56.980Z,7.00
2022-11-19T07:51:42.751Z,7.10
2022-11-19T07:54:28.404Z,7.10
2022-11-19T07:57:14.272Z,7.10
2022-11-19T07:59:59.525Z,7.20
2022-11-19T08:02:45.262Z,7.20
2022-11-19T08:05:30.513Z,7.20
2022-11-19T08:08:16.049Z,7.10
2022-11-19T08:11:08.010Z,7.20
2022-11-19T08:13:53.695Z,7.20
2022-11-19T08:16:58.784Z,7.30
2022-11-19T08:19:44.271Z,7.20
2022-11-19T08:22:30.261Z,7.20
2022-11-19T08:25:16.065Z,7.30
2022-11-19T08:28:02.427Z,7.40
2022-11-19T08:30:47.994Z,7.50
2022-11-19T08:33:33.618Z,7.50
2022-11-19T08:36:19.508Z,7.50
2022-11-19T08:39:04.848Z,7.60
2022-11-19T08:42:08.422Z,7.60
2022-11-19T08:44:55.359Z,7.70
2022-11-19T08:47:40.917Z,7.80
2022-11-19T08:50:27.410Z,7.90
2022-11-19T08:53:12.953Z,7.90
2022-11-19T08:55:58.551Z,8.00
2022-11-19T08:58:43.996Z,8.10
2022-11-19T09:01:29.833Z,8.30
2022-11-19T09:04:15.732Z,8.40
2022-11-19T09:07:01.496Z,8.50
2022-11-19T09:09:47.385Z,8.50
2022-11-19T09:12:33.155Z,8.50
2022-11-19T09:15:19.798Z,8.50
2022-11-19T09:18:05.091Z,8.40
2022-11-19T09:20:57.014Z,8.40
2022-11-19T09:23:42.800Z,8.50
2022-11-19T09:26:28.133Z,8.50
2022-11-19T09:29:13.640Z,8.50
2022-11-19T09:31:59.400Z,8.50
2022-11-19T09:34:45.292Z,8.50
2022-11-19T09:37:34.057Z,8.50
2022-11-19T09:40:21.663Z,8.60
2022-11-19T09:43:16.814Z,8.60
2022-11-19T09:46:24.833Z,8.70
2022-11-19T09:49:14.116Z,8.70
2022-11-19T09:52:14.638Z,8.70
2022-11-19T09:55:01.909Z,8.80
2022-11-19T09:57:54.945Z,8.90
2022-11-19T10:00:40.799Z,8.90
2022-11-19T10:03:32.926Z,8.90
2022-11-19T10:06:25.869Z,9.00
2022-11-19T10:09:48.435Z,9.00
2022-11-19T10:13:12.100Z,9.00
2022-11-19T10:16:17.554Z,9.10
2022-11-19T10:19:09.084Z,9.10
2022-11-19T10:22:22.335Z,9.10
2022-11-19T10:25:32.214Z,9.20
2022-11-19T10:28:19.433Z,9.20
2022-11-19T10:31:19.187Z,9.20
2022-11-19T10:34:28.233Z,9.30
2022-11-19T10:37:17.823Z,9.40
2022-11-19T10:40:11.982Z,9.50
2022-11-19T10:43:36.520Z,9.50
2022-11-19T10:46:25.546Z,9.50
2022-11-19T10:49:11.480Z,9.50
2022-11-19T10:51:57.783Z,9.40
2022-11-19T10:54:44.468Z,9.60
2022-11-19T10:57:32.991Z,9.90
2022-11-19T11:00:19.046Z,10.00
2022-11-19T11:03:11.063Z,10.10
2022-11-19T11:06:06.508Z,10.20
2022-11-19T11:08:54.422Z,10.10
2022-11-19T11:11:58.124Z,10.10
2022-11-19T11:14:54.796Z,10.00
2022-11-19T11:17:42.636Z,10.00
2022-11-19T11:20:29.692Z,9.80
2022-11-19T11:23:16.673Z,9.80
2022-11-19T11:26:12.173Z,9.80
2022-11-19T11:29:14.816Z,9.70
2022-11-19T11:32:01.611Z,9.60
2022-11-19T11:34:51.758Z,9.60
2022-11-19T11:37:37.184Z,9.60
2022-11-19T11:40:24.153Z,9.50
2022-11-19T11:43:18.102Z,9.40
2022-11-19T11:46:06.835Z,9.40
2022-11-19T11:48:52.182Z,9.30
2022-11-19T11:51:42.261Z,9.30
2022-11-19T11:54:27.990Z,9.30
2022-11-19T11:57:19.166Z,9.40
2022-11-19T12:00:29.158Z,9.40
2022-11-19T12:03:19.618Z,9.60
2022-11-19T12:06:17.344Z,9.80
2022-11-19T12:09:29.273Z,9.90
2022-11-19T12:12:32.979Z,10.00
2022-11-19T12:15:42.639Z,10.00
2022-11-19T12:21:47.513Z,10.30
2022-11-19T12:24:44.416Z,10.40
2022-11-19T12:27:46.879Z,10.50
2022-11-19T12:30:51.293Z,10.50
2022-11-19T12:33:51.930Z,10.50
2022-11-19T12:36:49.375Z,10.40
2022-11-19T12:39:55.855Z,10.40
2022-11-19T12:42:44.031Z,10.40
2022-11-19T12:45:36.938Z,10.30
2022-11-19T12:48:37.733Z,10.20
2022-11-19T12:51:30.186Z,10.20
2022-11-19T12:54:34.648Z,10.20
2022-11-19T12:57:33.043Z,10.10
2022-11-19T13:00:19.772Z,10.10
2022-11-19T13:03:34.402Z,10.10
2022-11-19T13:06:32.698Z,10.10
2022-11-19T13:09:54.789Z,10.10
2022-11-19T13:12:46.552Z,10.10
2022-11-19T13:15:40.206Z,10.10
2022-11-19T13:18:30.945Z,10.10
2022-11-19T13:21:37.597Z,10.10
2022-11-19T13:24:37.750Z,10.10
2022-11-19T13:27:26.010Z,10.00
2022-11-19T13:30:19.182Z,10.00
2022-11-19T13:33:20.739Z,10.00
2022-11-19T13:36:35.582Z,9.90
2022-11-19T13:39:31.446Z,9.90
2022-11-19T13:42:39.294Z,9.90
2022-11-19T13:45:24.656Z,9.90
2022-11-19T13:48:33.445Z,10.20
2022-11-19T13:51:31.818Z,10.40
2022-11-19T13:54:38.683Z,10.60
2022-11-19T13:57:37.583Z,10.80
2022-11-19T14:00:28.565Z,10.90
2022-11-19T14:03:17.088Z,10.90
2022-11-19T14:06:17.945Z,10.90
2022-11-19T14:09:44.783Z,11.10
2022-11-19T14:12:39.306Z,11.20
2022-11-19T14:16:19.221Z,11.20
2022-11-19T14:19:28.859Z,11.10
2022-11-19T14:22:58.242Z,11.00
2022-11-19T14:26:08.993Z,10.90
2022-11-19T14:28:54.446Z,11.00
2022-11-19T14:32:03.224Z,11.10
2022-11-19T14:35:15.247Z,11.20
2022-11-19T14:38:25.750Z,11.20
2022-11-19T14:41:37.152Z,11.40
2022-11-19T14:44:25.658Z,11.50
2022-11-19T14:47:26.174Z,11.60
2022-11-19T14:50:28.397Z,11.50
2022-11-19T14:53:21.068Z,11.40
2022-11-19T14:56:12.394Z,11.30
2022-11-19T14:59:19.555Z,11.20
2022-11-19T15:02:25.712Z,10.90
2022-11-19T15:05:27.026Z,10.70
2022-11-19T15:08:18.620Z,10.50
2022-11-19T15:11:10.726Z,10.30
2022-11-19T15:14:30.063Z,10.10
2022-11-19T15:17:15.764Z,10.00
2022-11-19T15:20:35.064Z,9.90
2022-11-19T15:23:36.190Z,9.80
2022-11-19T15:26:53.099Z,9.80
2022-11-19T15:29:57.956Z,9.80
2022-11-19T15:33:16.419Z,9.70
2022-11-19T15:36:20.912Z,9.60
2022-11-19T15:39:23.429Z,9.50
2022-11-19T15:42:16.700Z,9.30
2022-11-19T15:45:15.747Z,9.30
2022-11-19T15:48:28.011Z,9.20
2022-11-19T15:51:16.581Z,9.00
2022-11-19T15:54:04.612Z,8.90
2022-11-19T15:56:51.048Z,8.90
2022-11-19T15:59:38.493Z,8.80
2022-11-19T16:02:41.363Z,8.70
2022-11-19T16:05:32.820Z,8.60
2022-11-19T16:08:18.672Z,8.50
2022-11-19T16:11:23.393Z,8.50
2022-11-19T16:14:42.760Z,8.40
2022-11-19T16:17:44.388Z,8.30
2022-11-19T16:20:30.296Z,8.20
2022-11-19T16:23:22.525Z,8.20
2022-11-19T16:26:07.944Z,8.10
2022-11-19T16:28:53.653Z,8.00
2022-11-19T16:31:39.434Z,8.00
2022-11-19T16:34:29.189Z,8.00
2022-11-19T16:37:16.969Z,8.00
2022-11-19T16:40:03.511Z,8.10
2022-11-19T16:43:00.496Z,7.90
2022-11-19T16:45:47.112Z,7.90
2022-11-19T16:48:50.700Z,7.90
2022-11-19T16:51:41.636Z,7.90
2022-11-19T16:54:46.048Z,7.90
2022-11-19T16:57:32.257Z,8.00
2022-11-19T17:00:20.774Z,7.90
2022-11-19T17:03:21.850Z,7.90
2022-11-19T17:06:09.756Z,7.90
2022-11-19T17:08:57.804Z,7.90
2022-11-19T17:12:09.542Z,7.90
2022-11-19T17:14:56.646Z,7.80
2022-11-19T17:17:42.540Z,7.70
2022-11-19T17:20:31.944Z,7.70
2022-11-19T17:23:23.086Z,7.70
2022-11-19T17:26:15.527Z,7.70
2022-11-19T17:29:09.003Z,7.70
2022-11-19T17:31:56.012Z,7.80
2022-11-19T17:34:46.391Z,7.90
2022-11-19T17:37:32.094Z,7.70
2022-11-19T17:40:17.611Z,7.70
2022-11-19T17:43:21.531Z,7.60
2022-11-19T17:46:07.212Z,7.60
2022-11-19T17:48:53.400Z,7.60
2022-11-19T17:51:39.023Z,7.60
2022-11-19T17:54:24.785Z,7.50
2022-11-19T17:57:10.136Z,7.40
2022-11-19T17:59:55.899Z,7.40
2022-11-19T18:02:41.356Z,7.30
2022-11-19T18:05:28.693Z,7.10
2022-11-19T18:08:18.184Z,7.10
2022-11-19T18:11:05.151Z,7.00
2022-11-19T18:13:55.627Z,7.00
2022-11-19T18:16:42.749Z,7.10
2022-11-19T18:19:28.818Z,7.10
2022-11-19T18:22:18.471Z,7.00
2022-11-19T18:25:15.038Z,7.10
2022-11-19T18:28:00.884Z,7.10
2022-11-19T18:30:46.474Z,7.20
2022-11-19T18:33:32.564Z,7.20
2022-11-19T18:36:18.275Z,7.20
2022-11-19T18:39:03.639Z,7.20
2022-11-19T18:41:49.066Z,7.20
2022-11-19T18:44:34.435Z,7.20
2022-11-19T18:47:21.961Z,7.30
2022-11-19T18:50:09.636Z,7.40
2022-11-19T18:52:55.422Z,7.40
2022-11-19T18:55:41.860Z,7.40
2022-11-19T18:58:27.424Z,7.40
2022-11-19T19:01:13.314Z,7.40
2022-11-19T19:03:58.923Z,7.40
2022-11-19T19:06:44.600Z,7.40
2022-11-19T19:09:30.337Z,7.30
2022-11-19T19:12:18.710Z,7.30
2022-11-19T19:15:04.422Z,7.40
2022-11-19T19:17:49.730Z,7.40
2022-11-19T19:20:35.869Z,7.50
2022-11-19T19:23:21.688Z,7.40
2022-11-19T19:26:08.333Z,7.40
2022-11-19T19:28:54.867Z,7.40
2022-11-19T19:31:40.389Z,7.50
2022-11-19T19:34:26.080Z,7.50
2022-11-19T19:37:11.559Z,7.50
2022-11-19T19:39:57.376Z,7.60
2022-11-19T19:42:43.093Z,7.50
2022-11-19T19:45:29.067Z,7.50
2022-11-19T19:48:14.777Z,7.50
2022-11-19T19:51:00.488Z,7.50
2022-11-19T19:53:46.351Z,7.50
2022-11-19T19:56:33.364Z,7.50
2022-11-19T19:59:19.724Z,7.50
2022-11-19T20:02:05.835Z,7.50
2022-11-19T20:04:51.535Z,7.50
2022-11-19T20:07:37.550Z,7.50
2022-11-19T20:10:23.034Z,7.50
2022-11-19T20:13:36.082Z,7.60
2022-11-19T20:16:25.190Z,7.50
2022-11-19T20:19:15.103Z,7.40
2022-11-19T20:22:00.380Z,7.40
2022-11-19T20:24:45.969Z,7.40
2022-11-19T20:27:31.618Z,7.40
2022-11-19T20:30:17.191Z,7.40
2022-11-19T20:33:02.727Z,7.40
2022-11-19T20:35:54.539Z,7.30
2022-11-19T20:38:41.439Z,7.30
2022-11-19T20:41:46.330Z,7.20
2022-11-19T20:44:32.154Z,7.30
2022-11-19T20:47:18.510Z,7.30
2022-11-19T20:50:04.080Z,7.30
2022-11-19T20:52:49.642Z,7.30
2022-11-19T20:55:36.424Z,7.30
2022-11-19T20:58:29.997Z,7.30
2022-11-19T21:01:15.931Z,7.30
2022-11-19T21:04:02.462Z,7.30
2022-11-19T21:06:49.746Z,7.30
2022-11-19T21:09:35.211Z,7.20
2022-11-19T21:12:20.537Z,7.20
2022-11-19T21:15:06.565Z,7.20
2022-11-19T21:17:52.152Z,7.20
2022-11-19T21:20:37.574Z,7.20
2022-11-19T21:23:23.161Z,7.20
2022-11-19T21:26:13.621Z,7.20
2022-11-19T21:29:00.289Z,7.20
2022-11-19T21:31:47.978Z,7.30
2022-11-19T21:34:33.882Z,7.20
2022-11-19T21:37:19.354Z,7.20
2022-11-19T21:40:05.182Z,7.30
2022-11-19T21:42:50.697Z,7.30
2022-11-19T21:45:39.969Z,7.30
2022-11-19T21:48:25.745Z,7.20
2022-11-19T21:51:12.167Z,7.30
2022-11-19T21:53:58.878Z,7.30
2022-11-19T21:56:44.645Z,7.20
2022-11-19T21:59:30.017Z,7.10
2022-11-19T22:02:15.382Z,6.90
2022-11-19T22:05:00.890Z,7.00
2022-11-19T22:07:46.225Z,7.00
2022-11-19T22:10:31.949Z,7.00
2022-11-19T22:13:17.489Z,7.00
2022-11-19T22:16:03.015Z,7.00
2022-11-19T22:18:48.375Z,6.90
2022-11-19T22:21:34.617Z,6.90
2022-11-19T22:24:20.608Z,6.90
2022-11-19T22:27:06.055Z,6.90
2022-11-19T22:29:53.162Z,6.80
2022-11-19T22:32:41.803Z,6.80
2022-11-19T22:35:27.377Z,6.90
2022-11-19T22:38:14.555Z,6.90
2022-11-19T22:41:09.511Z,6.90
2022-11-19T22:43:55.072Z,7.00
2022-11-19T22:46:40.549Z,7.00
2022-11-19T22:49:27.374Z,7.00
2022-11-19T22:52:14.662Z,6.90
2022-11-19T22:55:00.487Z,6.90
2022-11-19T22:57:45.914Z,6.80
2022-11-19T23:00:47.219Z,6.70
2022-11-19T23:03:33.457Z,6.60
2022-11-19T23:06:19.322Z,6.50
2022-11-19T23:09:06.802Z,6.60
2022-11-19T23:12:10.703Z,6.50
2022-11-19T23:14:56.735Z,6.40
2022-11-19T23:17:43.796Z,6.30
2022-11-19T23:20:31.227Z,6.30
2022-11-19T23:23:16.704Z,6.40
2022-11-19T23:26:03.494Z,6.30
2022-11-19T23:28:49.595Z,6.30
2022-11-19T23:31:37.924Z,6.20
2022-11-19T23:34:23.309Z,6.00
2022-11-19T23:37:09.059Z,6.00
2022-11-19T23:39:54.661Z,6.10
2022-11-19T23:42:40.326Z,6.10
2022-11-19T23:45:25.569Z,5.90
2022-11-19T23:48:11.067Z,6.00
2022-11-19T23:51:03.518Z,5.90
2022-11-19T23:53:49.575Z,5.80
2022-11-19T23:56:36.189Z,5.70
2022-11-19T23:59:25.671Z,5.50
